Time;durP1;ratioP1;P1;durP2;ratioP2;P2;SDS_P1;SDS_P2;PMS_P1;PMS_P2;Temp;Humidity;BMP_temperature;BMP_pressure;BME280_temperature;BME280_humidity;BME280_pressure;Samples;Min_cycle;Max_cycle;Signal;HPM_P1;HPM_P2
2023/08/05 00:00:54;;;;;;;11.18;5.00;;;14.00;99.90;;;;;;5034304;28;20061;-24
2023/08/05 00:03:20;;;;;;;9.23;5.20;;;14.00;99.90;;;;;;5033617;28;20054;-25
2023/08/05 00:05:46;;;;;;;11.60;5.30;;;14.00;99.90;;;;;;5033951;28;20041;-24
2023/08/05 00:08:12;;;;;;;10.68;5.97;;;14.00;99.90;;;;;;5000513;28;20400;-25
2023/08/05 00:10:45;;;;;;;11.60;6.85;;;14.00;99.90;;;;;;5034470;28;20518;-25
2023/08/05 00:13:12;;;;;;;11.18;5.40;;;13.90;99.90;;;;;;5033972;28;20103;-25
2023/08/05 00:15:38;;;;;;;13.38;7.32;;;13.90;99.90;;;;;;5034192;28;20132;-25
2023/08/05 00:18:04;;;;;;;9.63;5.57;;;13.90;99.90;;;;;;5034386;28;20393;-25
2023/08/05 00:20:30;;;;;;;10.18;5.60;;;13.90;99.90;;;;;;5016813;28;20045;-24
2023/08/05 00:22:56;;;;;;;11.73;6.18;;;13.90;99.90;;;;;;5032748;28;20041;-25
2023/08/05 00:25:22;;;;;;;8.25;5.22;;;13.80;99.90;;;;;;5033288;28;20129;-25
2023/08/05 00:27:47;;;;;;;7.70;5.20;;;13.80;99.90;;;;;;5033026;28;20071;-25
2023/08/05 00:30:13;;;;;;;8.52;5.00;;;13.80;99.90;;;;;;5016713;28;20050;-24
2023/08/05 00:32:39;;;;;;;20.73;6.43;;;13.80;99.90;;;;;;5032814;28;20057;-24
2023/08/05 00:35:06;;;;;;;12.25;6.22;;;13.70;99.90;;;;;;5032802;28;20128;-24
2023/08/05 00:37:33;;;;;;;11.35;5.90;;;13.70;99.90;;;;;;5032773;28;20056;-25
2023/08/05 00:39:59;;;;;;;9.40;5.75;;;13.70;99.90;;;;;;5016994;28;20076;-25
2023/08/05 00:42:29;;;;;;;12.60;6.80;;;13.60;99.90;;;;;;5032651;28;20042;-24
2023/08/05 00:44:55;;;;;;;12.70;6.85;;;13.60;99.90;;;;;;5033915;28;20128;-25
2023/08/05 00:47:21;;;;;;;8.82;5.80;;;13.60;99.90;;;;;;5033091;28;20560;-25
2023/08/05 00:49:50;;;;;;;10.05;6.47;;;13.50;99.90;;;;;;5032676;28;20124;-24
2023/08/05 00:52:18;;;;;;;10.98;7.78;;;13.50;99.90;;;;;;5033748;28;20175;-25
2023/08/05 00:54:44;;;;;;;15.07;7.55;;;13.40;99.90;;;;;;5034037;28;20048;-24
2023/08/05 00:57:12;;;;;;;12.60;7.53;;;13.40;99.90;;;;;;5033692;28;20053;-25
2023/08/05 00:59:37;;;;;;;10.75;7.40;;;13.30;99.90;;;;;;5034170;28;20053;-24
2023/08/05 01:02:03;;;;;;;11.25;7.43;;;13.30;99.90;;;;;;5033506;28;20053;-24
2023/08/05 01:04:29;;;;;;;12.93;7.88;;;13.20;99.90;;;;;;5032493;28;20463;-24
2023/08/05 01:06:57;;;;;;;14.77;8.25;;;13.10;99.90;;;;;;5033615;28;20179;-24
2023/08/05 01:09:23;;;;;;;15.90;7.65;;;13.00;99.90;;;;;;5033589;28;20041;-24
2023/08/05 01:11:48;;;;;;;11.18;7.28;;;12.90;99.90;;;;;;5033587;28;20563;-24
2023/08/05 01:14:14;;;;;;;11.25;7.38;;;12.80;99.90;;;;;;5033827;28;20052;-24
2023/08/05 01:16:40;;;;;;;13.32;8.00;;;12.70;99.90;;;;;;5032327;28;20475;-24
2023/08/05 01:19:14;;;;;;;18.25;7.70;;;12.50;99.90;;;;;;5032513;28;20045;-24
2023/08/05 01:22:03;;;;;;;11.88;8.15;;;12.40;99.90;;;;;;5034071;28;20117;-24
2023/08/05 01:24:37;;;;;;;13.30;7.75;;;12.20;99.90;;;;;;5032507;28;20399;-24
2023/08/05 01:27:04;;;;;;;14.25;7.63;;;12.10;99.90;;;;;;5032635;28;20057;-24
2023/08/05 01:29:30;;;;;;;12.50;7.95;;;12.10;99.90;;;;;;5032510;28;20423;-24
2023/08/05 01:31:56;;;;;;;14.70;8.35;;;12.00;99.90;;;;;;5032463;28;20092;-24
2023/08/05 01:34:22;;;;;;;12.02;7.95;;;12.10;99.90;;;;;;5031921;28;20521;-24
2023/08/05 01:36:48;;;;;;;11.13;7.30;;;12.00;99.90;;;;;;5034940;28;20045;-24
2023/08/05 01:39:13;;;;;;;17.67;8.20;;;11.90;99.90;;;;;;5037261;28;20403;-24
2023/08/05 01:41:39;;;;;;;13.00;9.55;;;11.90;99.90;;;;;;5035917;28;20051;-24
2023/08/05 01:44:05;;;;;;;16.33;8.35;;;11.80;99.90;;;;;;5036790;28;20432;-24
2023/08/05 01:46:30;;;;;;;12.82;7.88;;;11.70;99.90;;;;;;5003113;28;20049;-24
2023/08/05 01:48:56;;;;;;;14.30;7.43;;;11.60;99.90;;;;;;5037101;28;20068;-25
2023/08/05 01:51:22;;;;;;;19.90;8.63;;;11.50;99.90;;;;;;5037023;28;20045;-24
2023/08/05 01:53:48;;;;;;;12.75;7.80;;;11.50;99.90;;;;;;5036988;28;20045;-26
2023/08/05 01:56:13;;;;;;;23.23;7.30;;;11.40;99.90;;;;;;5036937;28;20502;-24
2023/08/05 01:58:39;;;;;;;14.35;7.47;;;11.30;99.90;;;;;;5035691;28;20041;-24
2023/08/05 02:01:05;;;;;;;12.02;8.27;;;11.20;99.90;;;;;;5018920;28;20061;-24
2023/08/05 02:03:30;;;;;;;15.32;7.72;;;11.20;99.90;;;;;;5035586;28;20081;-24
2023/08/05 02:05:56;;;;;;;14.13;8.45;;;11.10;99.90;;;;;;5036777;28;20051;-24
2023/08/05 02:08:22;;;;;;;18.05;8.70;;;11.10;99.90;;;;;;5035608;28;20042;-24
2023/08/05 02:10:48;;;;;;;12.88;7.75;;;11.10;99.90;;;;;;5035252;28;20099;-24
2023/08/05 02:13:16;;;;;;;12.40;7.90;;;11.00;99.90;;;;;;5019011;28;20053;-24
2023/08/05 02:15:42;;;;;;;15.02;8.38;;;11.00;99.90;;;;;;5035435;28;20076;-24
2023/08/05 02:18:08;;;;;;;13.32;8.82;;;11.00;99.90;;;;;;5018978;28;20059;-24
2023/08/05 02:20:34;;;;;;;15.98;8.98;;;11.00;99.90;;;;;;5035392;28;20053;-24
2023/08/05 02:23:00;;;;;;;15.35;8.48;;;11.00;99.90;;;;;;5035810;28;20080;-24
2023/08/05 02:25:26;;;;;;;12.52;7.95;;;10.90;99.90;;;;;;5036454;28;20080;-24
2023/08/05 02:27:51;;;;;;;13.20;8.02;;;10.90;99.90;;;;;;5036345;28;20041;-24
2023/08/05 02:30:18;;;;;;;12.60;8.73;;;10.90;99.90;;;;;;5036272;28;20128;-24
2023/08/05 02:32:43;;;;;;;17.25;8.45;;;10.90;99.90;;;;;;5036198;28;20042;-24
2023/08/05 02:35:09;;;;;;;18.70;8.63;;;10.90;99.90;;;;;;5036755;28;20056;-24
2023/08/05 02:37:35;;;;;;;18.63;10.18;;;10.90;99.90;;;;;;5036216;28;20120;-24
2023/08/05 02:40:00;;;;;;;18.30;8.00;;;10.80;99.90;;;;;;5035199;28;20049;-24
2023/08/05 02:42:26;;;;;;;14.52;8.77;;;10.80;99.90;;;;;;5036550;28;20376;-24
2023/08/05 02:44:52;;;;;;;14.80;9.05;;;10.80;99.90;;;;;;5036322;28;20048;-24
2023/08/05 02:47:17;;;;;;;16.38;9.43;;;10.70;99.90;;;;;;5018120;28;20132;-24
2023/08/05 02:49:43;;;;;;;14.60;8.98;;;10.80;99.90;;;;;;5035917;28;20053;-24
2023/08/05 02:52:09;;;;;;;15.32;8.82;;;10.80;99.90;;;;;;5035927;28;20041;-24
2023/08/05 02:54:34;;;;;;;20.33;9.35;;;10.90;99.90;;;;;;5035784;28;20464;-24
2023/08/05 02:57:00;;;;;;;19.65;9.70;;;11.10;99.90;;;;;;5018270;28;20041;-24
2023/08/05 02:59:27;;;;;;;19.67;9.63;;;11.20;99.90;;;;;;5035758;28;20041;-24
2023/08/05 03:01:53;;;;;;;18.63;9.77;;;11.30;99.90;;;;;;5034383;28;20045;-24
2023/08/05 03:04:18;;;;;;;19.17;10.40;;;11.40;99.90;;;;;;5018329;28;20124;-24
2023/08/05 03:06:44;;;;;;;19.35;8.68;;;11.50;99.90;;;;;;5035664;28;20041;-24
2023/08/05 03:09:10;;;;;;;19.63;9.35;;;11.60;99.90;;;;;;5019017;28;20436;-24
2023/08/05 03:11:35;;;;;;;17.42;8.55;;;11.60;99.90;;;;;;4985602;28;20045;-24
2023/08/05 03:14:02;;;;;;;14.55;8.65;;;11.60;99.90;;;;;;5035470;28;20042;-24
2023/08/05 03:16:27;;;;;;;16.33;7.50;;;11.60;99.90;;;;;;5035496;28;20495;-24
2023/08/05 03:18:53;;;;;;;12.68;7.88;;;11.60;99.90;;;;;;5018035;28;20091;-24
2023/08/05 03:21:19;;;;;;;12.90;8.05;;;11.60;99.90;;;;;;5035268;28;20112;-24
2023/08/05 03:23:45;;;;;;;13.07;7.78;;;11.70;99.90;;;;;;5035013;28;20050;-24
2023/08/05 03:26:10;;;;;;;11.95;7.72;;;11.70;99.90;;;;;;5034161;28;20399;-24
2023/08/05 03:28:37;;;;;;;14.13;8.13;;;11.80;99.90;;;;;;5035280;28;20479;-24
2023/08/05 03:31:02;;;;;;;14.30;7.50;;;11.80;99.90;;;;;;5035099;28;20056;-24
2023/08/05 03:33:29;;;;;;;16.20;9.52;;;11.80;99.90;;;;;;5035180;28;20162;-24
2023/08/05 03:35:55;;;;;;;14.02;8.30;;;11.80;99.90;;;;;;5033872;28;20061;-24
2023/08/05 03:38:20;;;;;;;13.50;8.00;;;11.90;99.90;;;;;;5035110;28;20053;-24
2023/08/05 03:40:46;;;;;;;17.08;9.15;;;12.00;99.90;;;;;;5035008;28;20041;-24
2023/08/05 03:43:12;;;;;;;14.18;8.43;;;12.00;99.90;;;;;;5033642;28;20050;-24
2023/08/05 03:45:37;;;;;;;18.60;7.80;;;12.00;99.90;;;;;;5035435;28;20049;-24
2023/08/05 03:48:03;;;;;;;15.90;7.82;;;12.10;99.90;;;;;;5035092;28;20053;-24
2023/08/05 03:50:29;;;;;;;20.15;9.32;;;12.10;99.90;;;;;;5034800;28;20514;-24
2023/08/05 03:52:55;;;;;;;13.70;7.82;;;12.10;99.90;;;;;;5034735;28;20084;-24
2023/08/05 03:55:21;;;;;;;16.65;8.43;;;12.10;99.90;;;;;;5017568;28;20050;-24
2023/08/05 03:57:48;;;;;;;16.33;8.57;;;12.10;99.90;;;;;;5035483;28;20128;-24
2023/08/05 04:00:14;;;;;;;16.40;8.70;;;12.20;99.90;;;;;;5034275;28;20048;-24
2023/08/05 04:02:41;;;;;;;19.40;8.90;;;12.20;99.90;;;;;;5035147;28;20061;-24
2023/08/05 04:05:07;;;;;;;13.02;7.55;;;12.10;99.90;;;;;;5033597;28;20089;-24
2023/08/05 04:07:34;;;;;;;13.95;8.25;;;12.20;99.90;;;;;;5034550;28;20045;-24
2023/08/05 04:10:00;;;;;;;16.27;7.90;;;12.10;99.90;;;;;;5034446;28;20045;-25
2023/08/05 04:12:26;;;;;;;13.05;9.00;;;12.10;99.90;;;;;;5000587;28;20479;-24
2023/08/05 04:14:53;;;;;;;22.63;8.80;;;12.10;99.90;;;;;;5033228;28;20045;-24
2023/08/05 04:17:21;;;;;;;11.15;7.63;;;12.10;99.90;;;;;;5034362;28;20127;-24
2023/08/05 04:19:48;;;;;;;13.50;7.53;;;12.20;99.90;;;;;;5032883;28;20495;-24
2023/08/05 04:22:16;;;;;;;16.02;8.25;;;12.20;99.90;;;;;;5033985;28;20048;-24
2023/08/05 04:24:45;;;;;;;11.63;6.43;;;12.10;99.90;;;;;;5034815;28;20089;-25
2023/08/05 04:27:10;;;;;;;12.07;8.45;;;12.20;99.90;;;;;;5034130;28;20511;-24
2023/08/05 04:29:36;;;;;;;13.57;7.90;;;12.30;99.90;;;;;;5034152;28;20049;-24
2023/08/05 04:32:02;;;;;;;15.57;8.45;;;12.30;99.90;;;;;;5033118;28;20049;-24
2023/08/05 04:34:33;;;;;;;11.10;7.18;;;12.40;99.90;;;;;;5034044;28;20500;-24
2023/08/05 04:37:21;;;;;;;14.18;7.82;;;12.40;99.90;;;;;;5034615;28;20053;-24
2023/08/05 04:39:47;;;;;;;11.07;6.93;;;12.50;99.90;;;;;;5034330;28;20045;-24
2023/08/05 04:42:13;;;;;;;12.80;7.43;;;12.60;99.90;;;;;;5032754;28;20042;-24
2023/08/05 04:44:40;;;;;;;12.43;7.13;;;12.70;99.90;;;;;;5032630;28;20568;-24
2023/08/05 04:47:09;;;;;;;13.90;7.68;;;12.80;99.90;;;;;;5033803;28;20461;-24
2023/08/05 04:49:35;;;;;;;10.35;6.45;;;12.90;99.90;;;;;;5032897;28;20056;-24
2023/08/05 04:52:05;;;;;;;10.57;6.45;;;13.00;99.90;;;;;;5033787;28;20099;-24
2023/08/05 04:54:38;;;;;;;13.25;6.55;;;13.10;99.90;;;;;;5017318;28;20085;-24
2023/08/05 04:57:05;;;;;;;11.43;7.05;;;13.30;99.90;;;;;;5016700;28;20457;-25
2023/08/05 04:59:31;;;;;;;10.75;6.65;;;13.40;99.90;;;;;;5032542;28;20482;-24
2023/08/05 05:01:57;;;;;;;10.13;6.15;;;13.50;99.90;;;;;;5034194;28;20057;-24
2023/08/05 05:04:22;;;;;;;12.32;6.28;;;13.60;99.90;;;;;;5033077;28;20383;-24
2023/08/05 05:06:48;;;;;;;10.20;6.07;;;13.80;99.90;;;;;;5033283;28;20124;-25
2023/08/05 05:09:14;;;;;;;11.30;6.90;;;13.80;99.90;;;;;;5015977;28;20487;-24
2023/08/05 05:11:40;;;;;;;11.95;5.72;;;13.90;99.90;;;;;;5038884;28;20056;-24
2023/08/05 05:14:06;;;;;;;12.82;5.85;;;13.90;99.90;;;;;;5040142;28;20417;-24
2023/08/05 05:16:32;;;;;;;9.77;6.05;;;14.10;99.90;;;;;;5039266;28;20052;-24
2023/08/05 05:18:58;;;;;;;10.80;5.47;;;14.20;99.90;;;;;;5022818;28;20147;-24
2023/08/05 05:21:23;;;;;;;15.88;5.97;;;14.30;99.90;;;;;;5040070;28;20128;-25
2023/08/05 05:23:49;;;;;;;8.90;5.25;;;14.30;99.90;;;;;;5040038;28;20056;-24
2023/08/05 05:26:15;;;;;;;13.48;5.85;;;14.30;99.90;;;;;;5040058;28;20041;-24
2023/08/05 05:28:41;;;;;;;11.20;6.15;;;14.30;99.90;;;;;;5040568;28;20077;-24
2023/08/05 05:31:06;;;;;;;9.73;6.00;;;14.30;99.90;;;;;;5039978;28;20046;-24
2023/08/05 05:33:32;;;;;;;9.52;5.60;;;14.30;99.90;;;;;;5040862;28;20057;-24
2023/08/05 05:35:58;;;;;;;14.05;6.20;;;14.30;99.90;;;;;;5040785;28;20438;-25
2023/08/05 05:38:23;;;;;;;9.55;5.30;;;14.30;99.90;;;;;;5040510;28;20045;-24
2023/08/05 05:40:54;;;;;;;8.38;5.60;;;14.30;99.90;;;;;;5038820;28;20045;-24
2023/08/05 05:43:20;;;;;;;11.02;5.80;;;14.20;99.90;;;;;;5039915;28;20068;-24
2023/08/05 05:45:49;;;;;;;9.93;5.78;;;14.20;99.90;;;;;;5039914;28;20049;-24
2023/08/05 05:48:15;;;;;;;8.15;5.07;;;14.50;99.90;;;;;;5040446;28;20379;-24
2023/08/05 05:50:43;;;;;;;11.77;6.22;;;14.70;99.90;;;;;;5039474;28;20048;-25
2023/08/05 05:53:13;;;;;;;10.57;5.40;;;14.80;99.90;;;;;;5022654;28;20049;-25
2023/08/05 05:55:41;;;;;;;11.20;5.80;;;14.70;99.90;;;;;;5038705;28;20122;-24
2023/08/05 05:58:07;;;;;;;9.55;6.30;;;14.70;99.90;;;;;;5039779;28;20128;-25
2023/08/05 06:00:32;;;;;;;11.05;5.57;;;14.80;99.90;;;;;;5040120;28;20184;-24
2023/08/05 06:02:58;;;;;;;7.18;5.45;;;15.10;99.90;;;;;;5039722;28;20128;-24
2023/08/05 06:05:24;;;;;;;8.48;5.72;;;15.50;99.90;;;;;;5039768;28;20052;-24
2023/08/05 06:07:50;;;;;;;7.82;5.53;;;15.60;99.90;;;;;;5039723;28;20045;-24
2023/08/05 06:10:16;;;;;;;8.13;4.95;;;15.60;99.90;;;;;;5040502;28;20072;-24
2023/08/05 06:12:42;;;;;;;7.93;5.10;;;15.70;99.90;;;;;;5039607;28;20044;-25
2023/08/05 06:15:08;;;;;;;7.43;4.45;;;16.00;99.90;;;;;;5021984;28;20052;-24
2023/08/05 06:17:33;;;;;;;6.57;4.30;;;16.30;99.90;;;;;;5038434;28;20053;-26
2023/08/05 06:19:59;;;;;;;6.65;3.83;;;16.80;99.90;;;;;;5040164;28;20442;-26
2023/08/05 06:22:25;;;;;;;6.95;3.15;;;17.50;99.90;;;;;;5021196;28;20129;-26
2023/08/05 06:24:51;;;;;;;6.00;3.28;;;17.90;1.00;;;;;;5035888;28;20054;-26
2023/08/05 06:27:17;;;;;;;6.82;3.17;;;18.20;99.90;;;;;;5037181;28;20091;-26
2023/08/05 06:29:43;;;;;;;8.55;2.78;;;18.20;99.90;;;;;;5035281;28;20099;-26
2023/08/05 06:32:09;;;;;;;6.45;3.13;;;18.10;99.90;;;;;;5036268;28;20041;-26
2023/08/05 06:34:35;;;;;;;5.88;2.33;;;18.20;99.90;;;;;;5018813;28;20041;-25
2023/08/05 06:37:00;;;;;;;7.65;2.65;;;18.00;99.90;;;;;;5035270;28;20046;-25
2023/08/05 06:39:26;;;;;;;4.13;2.03;;;17.80;99.90;;;;;;5036233;28;20419;-25
2023/08/05 06:41:52;;;;;;;4.95;2.03;;;17.50;99.90;;;;;;5035710;28;20147;-26
2023/08/05 06:44:18;;;;;;;6.05;1.92;;;17.40;99.90;;;;;;5035787;28;20060;-25
2023/08/05 06:46:43;;;;;;;7.43;2.10;;;17.60;99.90;;;;;;5035385;28;20052;-26
2023/08/05 06:49:10;;;;;;;8.07;1.85;;;18.10;97.70;;;;;;5035021;28;20053;-26
2023/08/05 06:51:37;;;;;;;3.50;1.50;;;18.50;1.00;;;;;;5035032;28;20056;-26
2023/08/05 06:54:03;;;;;;;3.35;1.77;;;18.80;99.90;;;;;;5035924;28;20054;-25
2023/08/05 06:56:28;;;;;;;4.60;1.73;;;18.80;23.90;;;;;;5036397;28;20057;-26
2023/08/05 06:58:54;;;;;;;3.42;1.55;;;19.10;12.70;;;;;;5034559;28;20041;-26
2023/08/05 07:01:20;;;;;;;6.00;1.80;;;18.90;93.90;;;;;;5035344;28;20045;-26
2023/08/05 07:03:46;;;;;;;9.05;1.58;;;18.70;99.90;;;;;;5035561;28;20060;-26
2023/08/05 07:06:12;;;;;;;4.40;1.33;;;18.60;99.90;;;;;;5018421;28;20052;-26
2023/08/05 07:08:38;;;;;;;5.50;2.00;;;18.50;1.00;;;;;;5018140;28;20118;-25
2023/08/05 07:11:03;;;;;;;3.03;1.42;;;18.30;99.90;;;;;;5036054;28;20041;-25
2023/08/05 07:13:29;;;;;;;4.20;1.67;;;18.20;99.90;;;;;;5035748;28;20052;-26
2023/08/05 07:16:02;;;;;;;3.58;1.35;;;18.20;99.90;;;;;;5035646;28;20068;-26
2023/08/05 07:18:29;;;;;;;4.50;1.77;;;18.30;1.00;;;;;;5033883;28;20468;-26
2023/08/05 07:20:55;;;;;;;5.07;1.88;;;18.30;99.90;;;;;;5035410;28;20049;-27
2023/08/05 07:23:21;;;;;;;5.20;1.48;;;18.40;99.90;;;;;;5035309;28;20052;-26
2023/08/05 07:25:47;;;;;;;4.18;1.83;;;18.60;99.90;;;;;;5034382;28;20049;-26
2023/08/05 07:28:13;;;;;;;3.55;1.58;;;18.80;99.90;;;;;;5036099;28;20123;-25
2023/08/05 07:30:39;;;;;;;3.88;1.25;;;18.80;99.90;;;;;;5035252;28;20518;-26
2023/08/05 07:33:07;;;;;;;4.38;1.60;;;18.70;79.20;;;;;;5033521;28;20053;-26
2023/08/05 07:35:33;;;;;;;2.65;1.50;;;18.60;63.00;;;;;;5034745;28;20057;-26
2023/08/05 07:38:03;;;;;;;5.05;1.60;;;18.40;96.90;;;;;;5035136;28;20124;-26
2023/08/05 07:40:30;;;;;;;4.03;1.48;;;18.30;1.00;;;;;;5033579;28;20149;-25
2023/08/05 07:42:56;;;;;;;3.92;1.23;;;18.20;55.30;;;;;;5034342;28;20120;-26
2023/08/05 07:45:22;;;;;;;3.20;1.38;;;18.10;96.80;;;;;;5035482;28;20081;-25
2023/08/05 07:47:48;;;;;;;5.22;1.70;;;18.20;78.10;;;;;;5034876;28;20217;-25
2023/08/05 07:50:21;;;;;;;4.18;1.80;;;18.30;99.90;;;;;;5034284;28;20041;-26
2023/08/05 07:52:48;;;;;;;5.25;1.80;;;18.50;99.90;;;;;;5034724;28;20058;-26
2023/08/05 07:55:16;;;;;;;3.33;1.33;;;18.70;99.90;;;;;;5034751;28;20046;-25
2023/08/05 07:57:42;;;;;;;3.13;1.60;;;18.80;99.90;;;;;;5033450;28;20076;-25
2023/08/05 08:00:12;;;;;;;5.63;2.20;;;18.90;54.50;;;;;;5033789;28;20049;-25
2023/08/05 08:02:38;;;;;;;5.30;1.73;;;19.00;15.00;;;;;;5034125;28;20107;-25
2023/08/05 08:05:05;;;;;;;6.47;2.53;;;19.00;99.90;;;;;;5035403;28;20072;-26
2023/08/05 08:07:31;;;;;;;3.63;1.75;;;19.00;1.00;;;;;;5033417;28;20045;-26
2023/08/05 08:09:57;;;;;;;3.58;1.50;;;19.10;1.00;;;;;;5033334;28;20454;-26
2023/08/05 08:12:23;;;;;;;4.15;1.25;;;19.10;1.00;;;;;;5034705;28;20116;-26
2023/08/05 08:14:48;;;;;;;3.08;1.63;;;19.20;1.00;;;;;;5034455;28;20494;-26
2023/08/05 08:17:16;;;;;;;6.30;1.85;;;19.20;99.90;;;;;;5034899;28;20048;-26
2023/08/05 08:19:42;;;;;;;5.07;1.63;;;19.10;1.00;;;;;;5034369;28;20179;-25
2023/08/05 08:22:08;;;;;;;4.15;1.50;;;19.20;1.00;;;;;;5033033;28;20050;-26
2023/08/05 08:24:34;;;;;;;2.95;1.77;;;19.30;1.00;;;;;;5034464;28;20098;-26
2023/08/05 08:27:00;;;;;;;2.65;1.40;;;19.40;99.90;;;;;;5034173;28;20060;-26
2023/08/05 08:29:26;;;;;;;3.92;1.92;;;19.60;99.90;;;;;;5033841;28;20041;-26
2023/08/05 08:31:52;;;;;;;3.20;1.38;;;19.80;99.90;;;;;;5032696;28;20049;-26
2023/08/05 08:34:17;;;;;;;6.13;1.67;;;19.90;99.90;;;;;;5033941;28;20084;-26
2023/08/05 08:36:43;;;;;;;5.00;1.40;;;20.10;99.90;;;;;;5033865;28;20128;-26
2023/08/05 08:39:09;;;;;;;3.45;1.60;;;20.10;99.90;;;;;;5016294;28;20060;-26
2023/08/05 08:41:44;;;;;;;2.15;1.30;;;20.10;99.90;;;;;;5033880;28;20077;-25
2023/08/05 08:44:10;;;;;;;3.25;1.55;;;20.30;50.30;;;;;;5033809;28;20041;-26
2023/08/05 08:46:37;;;;;;;4.85;1.75;;;20.30;6.30;;;;;;5033781;28;20048;-26
2023/08/05 08:49:03;;;;;;;3.60;1.50;;;20.40;1.00;;;;;;5032502;28;20053;-27
2023/08/05 08:51:32;;;;;;;3.13;1.27;;;20.20;1.00;;;;;;5034775;28;20376;-26
2023/08/05 08:54:00;;;;;;;2.58;1.33;;;20.40;1.00;;;;;;5044245;28;20579;-25
2023/08/05 08:56:26;;;;;;;3.63;1.65;;;20.50;1.00;;;;;;5033892;28;20450;-25
2023/08/05 08:58:51;;;;;;;3.35;1.30;;;20.70;1.00;;;;;;5016265;28;20037;-25
2023/08/05 09:01:18;;;;;;;5.22;1.17;;;20.80;1.00;;;;;;5045232;28;20057;-25
2023/08/05 09:03:54;;;;;;;3.67;1.40;;;21.00;99.90;;;;;;5034670;28;20103;-26
2023/08/05 09:06:24;;;;;;;4.75;1.20;;;21.00;86.50;;;;;;5032530;28;20053;-25
2023/08/05 09:08:55;;;;;;;2.72;0.98;;;21.00;1.00;;;;;;5038227;28;20139;-25
2023/08/05 09:11:21;;;;;;;3.15;1.13;;;20.90;1.00;;;;;;5036061;28;20054;-25
2023/08/05 09:13:46;;;;;;;3.30;1.35;;;21.00;29.50;;;;;;5033839;28;20045;-27
2023/08/05 09:16:13;;;;;;;3.03;1.30;;;21.10;1.00;;;;;;5033278;28;20072;-26
2023/08/05 09:18:44;;;;;;;2.28;1.20;;;21.20;1.00;;;;;;5033546;28;20115;-26
2023/08/05 09:21:10;;;;;;;2.25;1.00;;;21.20;99.90;;;;;;5045319;28;20491;-26
2023/08/05 09:23:48;;;;;;;2.03;1.08;;;21.30;99.90;;;;;;5053383;28;20128;-26
2023/08/05 09:26:13;;;;;;;3.88;1.10;;;21.70;99.90;;;;;;5049935;28;20106;-26
2023/08/05 09:28:39;;;;;;;3.03;1.33;;;22.10;99.90;;;;;;5039492;28;20491;-25
2023/08/05 09:31:20;;;;;;;2.88;0.80;;;22.20;99.90;;;;;;5050811;28;20064;-25
2023/08/05 09:33:46;;;;;;;2.47;1.30;;;23.00;99.90;;;;;;5053907;28;20146;-26
2023/08/05 09:36:15;;;;;;;2.85;1.10;;;23.20;99.90;;;;;;5052403;28;20503;-26
2023/08/05 09:38:44;;;;;;;4.55;1.20;;;23.00;99.90;;;;;;5053570;28;20118;-26
2023/08/05 09:41:10;;;;;;;2.13;1.02;;;22.30;41.70;;;;;;5051978;28;20041;-25
2023/08/05 09:43:40;;;;;;;2.97;1.27;;;22.00;1.00;;;;;;5051984;28;20052;-25
2023/08/05 09:46:11;;;;;;;4.30;1.30;;;21.60;99.90;;;;;;5052028;28;20051;-26
2023/08/05 09:48:45;;;;;;;2.28;1.20;;;21.60;99.90;;;;;;5037989;28;20046;-25
2023/08/05 09:51:17;;;;;;;2.70;1.15;;;21.70;1.00;;;;;;5046178;28;20044;-26
2023/08/05 09:53:49;;;;;;;3.05;1.42;;;22.50;99.90;;;;;;5046533;28;20041;-25
2023/08/05 09:56:20;;;;;;;4.30;1.30;;;22.50;94.90;;;;;;5039406;28;20388;-25
2023/08/05 09:58:50;;;;;;;6.57;1.25;;;22.80;99.90;;;;;;5038189;28;20474;-24
2023/08/05 10:01:24;;;;;;;2.45;1.13;;;22.70;99.70;;;;;;5043066;28;20418;-26
2023/08/05 10:04:00;;;;;;;4.20;1.10;;;23.20;49.80;;;;;;5039799;28;20041;-24
2023/08/05 10:06:29;;;;;;;3.35;0.90;;;23.20;1.00;;;;;;5057228;28;20036;-25
2023/08/05 10:08:56;;;;;;;2.25;0.88;;;22.90;1.00;;;;;;5033762;28;20103;-25
2023/08/05 10:11:24;;;;;;;3.60;1.20;;;22.60;1.00;;;;;;5036940;28;20107;-24
2023/08/05 10:13:56;;;;;;;1.83;0.95;;;22.50;1.00;;;;;;5036183;28;20497;-26
2023/08/05 10:16:23;;;;;;;2.60;0.98;;;22.50;1.00;;;;;;5038582;28;20442;-25
2023/08/05 10:18:49;;;;;;;4.55;1.40;;;22.20;1.00;;;;;;5052542;28;20131;-25
2023/08/05 10:21:40;;;;;;;4.20;1.20;;;22.60;16.90;;;;;;5042670;28;20125;-26
2023/08/05 10:24:09;;;;;;;1.45;0.90;;;23.20;99.90;;;;;;5028809;28;20110;-26
2023/08/05 10:26:45;;;;;;;3.15;0.82;;;23.80;1.00;;;;;;5036498;28;20377;-26
2023/08/05 10:29:28;;;;;;;3.17;1.10;;;23.70;99.90;;;;;;5043816;28;20048;-26
2023/08/05 10:32:14;;;;;;;2.60;1.10;;;;;;;;;;5037549;28;20107;-25
2023/08/05 10:34:40;;;;;;;2.72;1.20;;;24.60;77.00;;;;;;5039511;28;20084;-25
2023/08/05 10:37:06;;;;;;;1.67;1.02;;;24.30;99.90;;;;;;5036200;28;20100;-25
2023/08/05 10:40:00;;;;;;;4.13;1.10;;;23.80;99.90;;;;;;5046235;28;20049;-24
2023/08/05 10:42:34;;;;;;;3.10;1.40;;;23.30;99.90;;;;;;5045797;28;20087;-25
2023/08/05 10:45:00;;;;;;;2.88;1.25;;;23.20;99.90;;;;;;5047055;28;20053;-24
2023/08/05 10:47:26;;;;;;;2.67;1.38;;;23.00;99.90;;;;;;5056015;28;20049;-26
2023/08/05 10:50:12;;;;;;;2.33;1.08;;;22.70;99.90;;;;;;5040566;28;20051;-25
2023/08/05 10:52:38;;;;;;;2.80;1.10;;;22.60;99.90;;;;;;5035426;28;20040;-25
2023/08/05 10:55:10;;;;;;;2.75;1.25;;;22.70;99.90;;;;;;5035555;28;20064;-25
2023/08/05 10:57:38;;;;;;;1.73;1.03;;;22.90;99.90;;;;;;5036254;28;20053;-26
2023/08/05 11:00:18;;;;;;;4.63;1.10;;;23.00;99.90;;;;;;5055030;28;20447;-25
2023/08/05 11:02:46;;;;;;;3.20;0.90;;;22.80;99.90;;;;;;5050384;28;20449;-25
2023/08/05 11:05:20;;;;;;;2.08;1.10;;;23.10;99.90;;;;;;5035049;28;20533;-26
2023/08/05 11:07:46;;;;;;;3.10;1.27;;;23.40;99.90;;;;;;5035353;28;20132;-26
2023/08/05 11:10:15;;;;;;;3.38;1.17;;;23.60;99.90;;;;;;5035290;28;20161;-25
2023/08/05 11:12:56;;;;;;;2.42;0.88;;;23.80;99.90;;;;;;5040971;28;20467;-25
2023/08/05 11:15:25;;;;;;;3.25;1.00;;;23.80;99.90;;;;;;5043290;28;20045;-26
2023/08/05 11:17:54;;;;;;;2.92;1.25;;;23.50;99.90;;;;;;5050060;28;20040;-26
2023/08/05 11:20:28;;;;;;;2.78;1.00;;;23.20;99.90;;;;;;5047313;28;20114;-25
2023/08/05 11:22:54;;;;;;;2.33;1.13;;;23.20;99.90;;;;;;5045976;28;20059;-25
2023/08/05 11:25:23;;;;;;;3.20;1.10;;;23.30;99.90;;;;;;5038700;28;20124;-27
2023/08/05 11:27:56;;;;;;;1.88;1.00;;;23.40;99.90;;;;;;5048210;28;20041;-25
2023/08/05 11:30:24;;;;;;;2.35;0.95;;;23.60;99.90;;;;;;5039234;28;20105;-25
2023/08/05 11:32:55;;;;;;;3.97;1.48;;;23.70;99.90;;;;;;5039806;28;20048;-25
2023/08/05 11:35:22;;;;;;;2.58;1.25;;;23.70;99.90;;;;;;5038018;28;20124;-26
2023/08/05 11:37:48;;;;;;;2.45;1.30;;;23.40;99.90;;;;;;5037053;28;20049;-24
2023/08/05 11:40:16;;;;;;;2.45;1.23;;;23.30;99.90;;;;;;5039939;28;20086;-25
2023/08/05 11:42:42;;;;;;;2.55;1.30;;;23.10;99.90;;;;;;5061247;28;20048;-25
2023/08/05 11:45:15;;;;;;;3.38;1.50;;;23.10;99.90;;;;;;5059742;28;20048;-26
2023/08/05 11:47:42;;;;;;;5.10;1.60;;;23.20;99.90;;;;;;5039926;28;20040;-24
2023/08/05 11:50:10;;;;;;;2.30;1.40;;;23.10;99.90;;;;;;5039297;28;20045;-26
2023/08/05 11:52:39;;;;;;;2.78;1.35;;;23.10;99.90;;;;;;5039306;28;20041;-26
2023/08/05 11:55:06;;;;;;;5.47;1.23;;;23.00;99.90;;;;;;5034802;28;20049;-26
2023/08/05 11:57:35;;;;;;;4.82;1.25;;;23.10;99.90;;;;;;5034136;28;20056;-25
2023/08/05 12:00:05;;;;;;;3.22;1.30;;;22.90;99.90;;;;;;5018314;28;20546;-25
2023/08/05 12:02:34;;;;;;;2.83;1.60;;;23.00;99.90;;;;;;5034169;28;20091;-25
2023/08/05 12:05:01;;;;;;;2.83;1.33;;;22.70;99.90;;;;;;5050339;28;20114;-25
2023/08/05 12:07:27;;;;;;;2.97;1.48;;;22.70;99.90;;;;;;5035486;28;20072;-26
2023/08/05 12:10:09;;;;;;;2.78;1.65;;;22.60;99.90;;;;;;5039239;28;20119;-26
2023/08/05 12:12:37;;;;;;;4.50;1.67;;;22.50;99.90;;;;;;5034533;28;20140;-25
2023/08/05 12:15:17;;;;;;;3.65;1.50;;;22.10;99.90;;;;;;5035475;28;20446;-25
2023/08/05 12:17:50;;;;;;;5.18;1.55;;;22.00;99.90;;;;;;5033248;28;20403;-26
2023/08/05 12:20:18;;;;;;;2.42;0.95;;;21.80;99.90;;;;;;5037242;28;20134;-24
2023/08/05 12:22:47;;;;;;;2.75;1.48;;;21.70;1.00;;;;;;5037294;28;20048;-25
2023/08/05 12:25:13;;;;;;;3.70;1.70;;;21.40;1.00;;;;;;5041010;28;20535;-27
2023/08/05 12:27:40;;;;;;;2.45;1.67;;;21.20;1.00;;;;;;5029983;28;20246;-25
2023/08/05 12:30:07;;;;;;;5.07;1.95;;;21.10;51.30;;;;;;5042756;28;20041;-26
2023/08/05 12:32:34;;;;;;;4.50;2.05;;;20.90;99.90;;;;;;5042874;28;20490;-25
2023/08/05 12:35:01;;;;;;;2.60;2.05;;;20.60;99.90;;;;;;5053981;28;20069;-26
2023/08/05 12:37:27;;;;;;;2.53;2.13;;;20.40;99.90;;;;;;5044899;28;20042;-25
2023/08/05 12:39:53;;;;;;;3.70;1.90;;;20.20;99.90;;;;;;5052932;28;20060;-25
2023/08/05 12:42:18;;;;;;;5.07;2.60;;;20.00;99.90;;;;;;5041062;28;20079;-25
2023/08/05 12:44:44;;;;;;;3.28;2.15;;;19.80;1.00;;;;;;5045400;28;20044;-25